sensor_id;sensor_type;location;lat;lon;timestamp;P1;durP1;ratioP1;P2;durP2;ratioP2
1603;SDS011;795;49.296;11.348;2023-03-22T00:00:03;7.80;;;7.00;;
1603;SDS011;795;49.296;11.348;2023-03-22T00:02:31;8.00;;;6.43;;
1603;SDS011;795;49.296;11.348;2023-03-22T00:04:58;8.07;;;7.27;;
1603;SDS011;795;49.296;11.348;2023-03-22T00:07:26;7.60;;;6.80;;
1603;SDS011;795;49.296;11.348;2023-03-22T00:09:53;7.53;;;6.13;;
1603;SDS011;795;49.296;11.348;2023-03-22T00:12:20;5.93;;;5.43;;
1603;SDS011;795;49.296;11.348;2023-03-22T00:14:47;9.30;;;6.10;;
1603;SDS011;795;49.296;11.348;2023-03-22T00:17:14;8.83;;;6.10;;
1603;SDS011;795;49.296;11.348;2023-03-22T00:19:41;7.50;;;6.07;;
1603;SDS011;795;49.296;11.348;2023-03-22T00:22:09;8.27;;;6.87;;
1603;SDS011;795;49.296;11.348;2023-03-22T00:24:36;7.63;;;6.33;;
1603;SDS011;795;49.296;11.348;2023-03-22T00:27:03;8.70;;;5.90;;
1603;SDS011;795;49.296;11.348;2023-03-22T00:29:30;4.30;;;3.90;;
1603;SDS011;795;49.296;11.348;2023-03-22T00:31:57;6.37;;;4.70;;
1603;SDS011;795;49.296;11.348;2023-03-22T00:34:24;5.73;;;5.23;;
1603;SDS011;795;49.296;11.348;2023-03-22T00:36:57;12.27;;;4.80;;
1603;SDS011;795;49.296;11.348;2023-03-22T00:39:24;6.70;;;5.70;;
1603;SDS011;795;49.296;11.348;2023-03-22T00:41:52;5.27;;;4.10;;
1603;SDS011;795;49.296;11.348;2023-03-22T00:44:19;4.80;;;4.40;;
1603;SDS011;795;49.296;11.348;2023-03-22T00:46:46;4.83;;;4.40;;
1603;SDS011;795;49.296;11.348;2023-03-22T00:49:14;8.10;;;4.97;;
1603;SDS011;795;49.296;11.348;2023-03-22T00:51:41;4.70;;;4.07;;
1603;SDS011;795;49.296;11.348;2023-03-22T00:54:08;4.00;;;3.70;;
1603;SDS011;795;49.296;11.348;2023-03-22T00:56:34;5.00;;;4.40;;
1603;SDS011;795;49.296;11.348;2023-03-22T00:59:03;6.73;;;4.80;;
1603;SDS011;795;49.296;11.348;2023-03-22T01:01:30;4.60;;;4.17;;
1603;SDS011;795;49.296;11.348;2023-03-22T01:03:58;4.90;;;4.30;;
1603;SDS011;795;49.296;11.348;2023-03-22T01:06:25;6.17;;;4.07;;
1603;SDS011;795;49.296;11.348;2023-03-22T01:08:52;6.50;;;5.70;;
1603;SDS011;795;49.296;11.348;2023-03-22T01:11:20;6.00;;;4.77;;
1603;SDS011;795;49.296;11.348;2023-03-22T01:13:47;7.10;;;4.93;;
1603;SDS011;795;49.296;11.348;2023-03-22T01:16:14;5.70;;;5.03;;
1603;SDS011;795;49.296;11.348;2023-03-22T01:18:43;5.53;;;5.03;;
1603;SDS011;795;49.296;11.348;2023-03-22T01:21:10;4.93;;;4.50;;
1603;SDS011;795;49.296;11.348;2023-03-22T01:23:38;7.80;;;4.83;;
1603;SDS011;795;49.296;11.348;2023-03-22T01:26:05;6.57;;;4.73;;
1603;SDS011;795;49.296;11.348;2023-03-22T01:28:32;8.17;;;5.40;;
1603;SDS011;795;49.296;11.348;2023-03-22T01:31:00;6.53;;;4.40;;
1603;SDS011;795;49.296;11.348;2023-03-22T01:33:29;7.87;;;5.20;;
1603;SDS011;795;49.296;11.348;2023-03-22T01:35:56;8.57;;;5.50;;
1603;SDS011;795;49.296;11.348;2023-03-22T01:38:23;6.30;;;5.70;;
1603;SDS011;795;49.296;11.348;2023-03-22T01:40:50;6.93;;;5.00;;
1603;SDS011;795;49.296;11.348;2023-03-22T01:43:17;5.40;;;4.40;;
1603;SDS011;795;49.296;11.348;2023-03-22T01:45:45;6.80;;;4.80;;
1603;SDS011;795;49.296;11.348;2023-03-22T01:48:20;5.93;;;5.20;;
1603;SDS011;795;49.296;11.348;2023-03-22T01:51:09;5.30;;;4.67;;
1603;SDS011;795;49.296;11.348;2023-03-22T01:53:51;5.00;;;4.60;;
1603;SDS011;795;49.296;11.348;2023-03-22T01:56:46;8.73;;;4.70;;
1603;SDS011;795;49.296;11.348;2023-03-22T01:59:15;5.60;;;5.10;;
1603;SDS011;795;49.296;11.348;2023-03-22T02:01:42;7.73;;;5.77;;
1603;SDS011;795;49.296;11.348;2023-03-22T02:04:15;7.23;;;6.63;;
1603;SDS011;795;49.296;11.348;2023-03-22T02:06:50;5.90;;;5.37;;
1603;SDS011;795;49.296;11.348;2023-03-22T02:09:20;5.83;;;5.33;;
1603;SDS011;795;49.296;11.348;2023-03-22T02:21:03;6.20;;;5.60;;
1603;SDS011;795;49.296;11.348;2023-03-22T02:24:28;7.33;;;6.70;;
1603;SDS011;795;49.296;11.348;2023-03-22T02:34:37;9.13;;;6.93;;
1603;SDS011;795;49.296;11.348;2023-03-22T02:37:48;7.27;;;6.57;;
1603;SDS011;795;49.296;11.348;2023-03-22T02:40:54;8.80;;;6.50;;
1603;SDS011;795;49.296;11.348;2023-03-22T02:43:39;7.10;;;6.40;;
1603;SDS011;795;49.296;11.348;2023-03-22T02:46:54;6.93;;;6.33;;
1603;SDS011;795;49.296;11.348;2023-03-22T02:49:40;6.70;;;6.10;;
1603;SDS011;795;49.296;11.348;2023-03-22T02:52:31;7.63;;;6.93;;
1603;SDS011;795;49.296;11.348;2023-03-22T02:55:38;7.30;;;6.67;;
1603;SDS011;795;49.296;11.348;2023-03-22T02:58:24;7.40;;;6.70;;
1603;SDS011;795;49.296;11.348;2023-03-22T03:01:06;9.33;;;7.20;;
1603;SDS011;795;49.296;11.348;2023-03-22T03:03:43;7.90;;;6.80;;
1603;SDS011;795;49.296;11.348;2023-03-22T03:06:16;8.27;;;7.47;;
1603;SDS011;795;49.296;11.348;2023-03-22T03:08:51;9.13;;;7.57;;
1603;SDS011;795;49.296;11.348;2023-03-22T03:11:23;9.97;;;7.40;;
1603;SDS011;795;49.296;11.348;2023-03-22T03:13:50;7.53;;;6.73;;
1603;SDS011;795;49.296;11.348;2023-03-22T03:16:19;8.27;;;7.40;;
1603;SDS011;795;49.296;11.348;2023-03-22T03:19:14;7.63;;;6.77;;
1603;SDS011;795;49.296;11.348;2023-03-22T03:28:05;15.87;;;7.90;;
1603;SDS011;795;49.296;11.348;2023-03-22T03:30:49;11.23;;;6.77;;
1603;SDS011;795;49.296;11.348;2023-03-22T03:33:33;7.40;;;6.70;;
1603;SDS011;795;49.296;11.348;2023-03-22T03:36:17;8.10;;;7.30;;
1603;SDS011;795;49.296;11.348;2023-03-22T03:38:48;8.63;;;7.40;;
1603;SDS011;795;49.296;11.348;2023-03-22T03:41:21;7.57;;;6.87;;
1603;SDS011;795;49.296;11.348;2023-03-22T03:43:55;7.40;;;6.70;;
1603;SDS011;795;49.296;11.348;2023-03-22T03:46:24;8.17;;;7.30;;
1603;SDS011;795;49.296;11.348;2023-03-22T03:48:54;9.67;;;6.57;;
1603;SDS011;795;49.296;11.348;2023-03-22T03:51:25;7.67;;;6.70;;
1603;SDS011;795;49.296;11.348;2023-03-22T03:53:53;7.90;;;7.07;;
1603;SDS011;795;49.296;11.348;2023-03-22T03:56:20;9.20;;;6.40;;
1603;SDS011;795;49.296;11.348;2023-03-22T03:58:47;14.43;;;7.30;;
1603;SDS011;795;49.296;11.348;2023-03-22T04:01:14;7.73;;;6.93;;
1603;SDS011;795;49.296;11.348;2023-03-22T04:03:41;7.47;;;6.83;;
1603;SDS011;795;49.296;11.348;2023-03-22T04:06:07;8.23;;;7.43;;
1603;SDS011;795;49.296;11.348;2023-03-22T04:08:34;12.40;;;6.90;;
1603;SDS011;795;49.296;11.348;2023-03-22T04:11:01;17.33;;;7.90;;
1603;SDS011;795;49.296;11.348;2023-03-22T04:13:28;8.37;;;7.00;;
1603;SDS011;795;49.296;11.348;2023-03-22T04:15:55;6.87;;;6.17;;
1603;SDS011;795;49.296;11.348;2023-03-22T04:18:23;8.93;;;8.10;;
1603;SDS011;795;49.296;11.348;2023-03-22T04:20:49;7.00;;;6.40;;
1603;SDS011;795;49.296;11.348;2023-03-22T04:23:18;7.70;;;6.90;;
1603;SDS011;795;49.296;11.348;2023-03-22T04:25:48;8.73;;;7.93;;
1603;SDS011;795;49.296;11.348;2023-03-22T04:28:15;8.77;;;7.60;;
1603;SDS011;795;49.296;11.348;2023-03-22T04:30:45;12.43;;;9.27;;
1603;SDS011;795;49.296;11.348;2023-03-22T04:33:17;13.50;;;9.77;;
1603;SDS011;795;49.296;11.348;2023-03-22T04:35:47;9.47;;;8.30;;
1603;SDS011;795;49.296;11.348;2023-03-22T04:38:15;10.20;;;9.13;;
1603;SDS011;795;49.296;11.348;2023-03-22T04:40:43;10.77;;;9.57;;
1603;SDS011;795;49.296;11.348;2023-03-22T04:43:12;16.03;;;8.93;;
1603;SDS011;795;49.296;11.348;2023-03-22T04:45:40;10.30;;;8.90;;
1603;SDS011;795;49.296;11.348;2023-03-22T04:48:07;10.20;;;8.80;;
1603;SDS011;795;49.296;11.348;2023-03-22T04:50:36;11.43;;;9.20;;
1603;SDS011;795;49.296;11.348;2023-03-22T04:53:05;20.00;;;8.77;;
1603;SDS011;795;49.296;11.348;2023-03-22T04:55:33;12.50;;;9.60;;
1603;SDS011;795;49.296;11.348;2023-03-22T04:58:00;10.87;;;9.87;;
1603;SDS011;795;49.296;11.348;2023-03-22T05:00:27;12.80;;;9.43;;
1603;SDS011;795;49.296;11.348;2023-03-22T05:02:55;8.93;;;8.07;;
1603;SDS011;795;49.296;11.348;2023-03-22T05:05:23;8.50;;;7.77;;
1603;SDS011;795;49.296;11.348;2023-03-22T05:07:50;8.90;;;7.77;;
1603;SDS011;795;49.296;11.348;2023-03-22T05:10:17;9.30;;;8.40;;
1603;SDS011;795;49.296;11.348;2023-03-22T05:12:44;8.40;;;6.80;;
1603;SDS011;795;49.296;11.348;2023-03-22T05:15:11;9.50;;;8.53;;
1603;SDS011;795;49.296;11.348;2023-03-22T05:17:39;9.27;;;8.37;;
1603;SDS011;795;49.296;11.348;2023-03-22T05:20:06;10.67;;;8.70;;
1603;SDS011;795;49.296;11.348;2023-03-22T05:22:35;19.13;;;8.30;;
1603;SDS011;795;49.296;11.348;2023-03-22T05:25:06;9.80;;;7.93;;
1603;SDS011;795;49.296;11.348;2023-03-22T05:27:35;7.77;;;6.70;;
1603;SDS011;795;49.296;11.348;2023-03-22T05:30:04;8.40;;;7.50;;
1603;SDS011;795;49.296;11.348;2023-03-22T05:32:32;7.70;;;6.90;;
1603;SDS011;795;49.296;11.348;2023-03-22T05:35:02;12.10;;;8.03;;
1603;SDS011;795;49.296;11.348;2023-03-22T05:37:30;7.93;;;7.07;;
1603;SDS011;795;49.296;11.348;2023-03-22T05:39:57;9.77;;;8.23;;
1603;SDS011;795;49.296;11.348;2023-03-22T05:42:24;10.37;;;8.47;;
1603;SDS011;795;49.296;11.348;2023-03-22T05:44:51;9.80;;;7.90;;
1603;SDS011;795;49.296;11.348;2023-03-22T05:47:18;8.80;;;7.90;;
1603;SDS011;795;49.296;11.348;2023-03-22T05:49:45;10.43;;;7.73;;
1603;SDS011;795;49.296;11.348;2023-03-22T05:52:12;8.87;;;8.00;;
1603;SDS011;795;49.296;11.348;2023-03-22T05:54:39;9.70;;;8.90;;
1603;SDS011;795;49.296;11.348;2023-03-22T05:57:06;10.10;;;7.90;;
1603;SDS011;795;49.296;11.348;2023-03-22T05:59:33;9.40;;;8.43;;
1603;SDS011;795;49.296;11.348;2023-03-22T06:02:00;10.63;;;8.37;;
1603;SDS011;795;49.296;11.348;2023-03-22T06:04:27;12.80;;;8.20;;
1603;SDS011;795;49.296;11.348;2023-03-22T06:06:55;9.93;;;8.83;;
1603;SDS011;795;49.296;11.348;2023-03-22T06:09:22;11.17;;;9.43;;
1603;SDS011;795;49.296;11.348;2023-03-22T06:11:49;12.60;;;8.90;;
1603;SDS011;795;49.296;11.348;2023-03-22T06:14:16;10.87;;;7.83;;
1603;SDS011;795;49.296;11.348;2023-03-22T06:16:43;12.10;;;8.20;;
1603;SDS011;795;49.296;11.348;2023-03-22T06:19:10;10.20;;;9.10;;
1603;SDS011;795;49.296;11.348;2023-03-22T06:21:37;13.17;;;10.10;;
1603;SDS011;795;49.296;11.348;2023-03-22T06:24:04;11.23;;;9.10;;
1603;SDS011;795;49.296;11.348;2023-03-22T06:26:31;9.77;;;8.87;;
1603;SDS011;795;49.296;11.348;2023-03-22T06:28:58;11.40;;;9.07;;
1603;SDS011;795;49.296;11.348;2023-03-22T06:31:25;10.60;;;9.10;;
1603;SDS011;795;49.296;11.348;2023-03-22T06:33:52;12.83;;;9.80;;
1603;SDS011;795;49.296;11.348;2023-03-22T06:36:21;10.17;;;9.17;;
1603;SDS011;795;49.296;11.348;2023-03-22T06:38:48;10.80;;;9.17;;
1603;SDS011;795;49.296;11.348;2023-03-22T06:41:14;10.93;;;9.73;;
1603;SDS011;795;49.296;11.348;2023-03-22T06:43:41;11.37;;;10.27;;
1603;SDS011;795;49.296;11.348;2023-03-22T06:46:08;11.40;;;9.60;;
1603;SDS011;795;49.296;11.348;2023-03-22T06:48:35;11.50;;;10.40;;
1603;SDS011;795;49.296;11.348;2023-03-22T06:51:02;12.33;;;11.00;;
1603;SDS011;795;49.296;11.348;2023-03-22T06:53:29;16.43;;;10.70;;
1603;SDS011;795;49.296;11.348;2023-03-22T06:55:56;10.30;;;9.30;;
1603;SDS011;795;49.296;11.348;2023-03-22T06:58:23;15.70;;;10.43;;
1603;SDS011;795;49.296;11.348;2023-03-22T07:00:50;18.50;;;11.87;;
1603;SDS011;795;49.296;11.348;2023-03-22T07:03:20;11.07;;;9.80;;
1603;SDS011;795;49.296;11.348;2023-03-22T07:05:46;15.53;;;10.27;;
1603;SDS011;795;49.296;11.348;2023-03-22T07:08:13;10.40;;;9.17;;
1603;SDS011;795;49.296;11.348;2023-03-22T07:10:41;11.13;;;8.63;;
1603;SDS011;795;49.296;11.348;2023-03-22T07:13:08;8.50;;;7.70;;
1603;SDS011;795;49.296;11.348;2023-03-22T07:15:35;9.80;;;8.43;;
1603;SDS011;795;49.296;11.348;2023-03-22T07:18:02;8.57;;;7.60;;
1603;SDS011;795;49.296;11.348;2023-03-22T07:20:29;8.30;;;7.10;;
1603;SDS011;795;49.296;11.348;2023-03-22T07:22:58;10.80;;;7.77;;
1603;SDS011;795;49.296;11.348;2023-03-22T07:25:25;7.20;;;6.60;;
1603;SDS011;795;49.296;11.348;2023-03-22T07:27:52;9.47;;;7.20;;
1603;SDS011;795;49.296;11.348;2023-03-22T07:30:19;6.70;;;6.10;;
1603;SDS011;795;49.296;11.348;2023-03-22T07:32:46;8.00;;;7.20;;
1603;SDS011;795;49.296;11.348;2023-03-22T07:35:13;8.27;;;6.70;;
1603;SDS011;795;49.296;11.348;2023-03-22T07:37:42;8.77;;;7.87;;
1603;SDS011;795;49.296;11.348;2023-03-22T07:40:09;7.80;;;7.10;;
1603;SDS011;795;49.296;11.348;2023-03-22T07:42:38;7.40;;;6.57;;
1603;SDS011;795;49.296;11.348;2023-03-22T07:45:05;7.83;;;7.03;;
1603;SDS011;795;49.296;11.348;2023-03-22T07:47:33;7.93;;;7.17;;
1603;SDS011;795;49.296;11.348;2023-03-22T07:50:06;6.70;;;6.10;;
1603;SDS011;795;49.296;11.348;2023-03-22T07:52:40;6.97;;;6.37;;
1603;SDS011;795;49.296;11.348;2023-03-22T07:55:09;7.17;;;6.57;;
1603;SDS011;795;49.296;11.348;2023-03-22T07:57:39;7.90;;;6.37;;
1603;SDS011;795;49.296;11.348;2023-03-22T08:00:07;7.00;;;6.40;;
1603;SDS011;795;49.296;11.348;2023-03-22T08:02:35;8.70;;;6.17;;
1603;SDS011;795;49.296;11.348;2023-03-22T08:05:04;6.00;;;5.40;;
1603;SDS011;795;49.296;11.348;2023-03-22T08:07:32;7.30;;;6.20;;
1603;SDS011;795;49.296;11.348;2023-03-22T08:09:59;8.60;;;6.40;;
1603;SDS011;795;49.296;11.348;2023-03-22T08:12:26;5.73;;;5.13;;
1603;SDS011;795;49.296;11.348;2023-03-22T08:14:53;6.57;;;5.97;;
1603;SDS011;795;49.296;11.348;2023-03-22T08:17:20;5.73;;;5.20;;
1603;SDS011;795;49.296;11.348;2023-03-22T08:19:47;4.57;;;4.17;;
1603;SDS011;795;49.296;11.348;2023-03-22T08:22:15;6.20;;;4.33;;
1603;SDS011;795;49.296;11.348;2023-03-22T08:24:42;5.23;;;3.63;;
1603;SDS011;795;49.296;11.348;2023-03-22T08:27:09;6.63;;;4.40;;
1603;SDS011;795;49.296;11.348;2023-03-22T08:29:37;4.33;;;4.00;;
1603;SDS011;795;49.296;11.348;2023-03-22T08:32:04;4.07;;;3.77;;
1603;SDS011;795;49.296;11.348;2023-03-22T08:34:35;5.03;;;3.73;;
1603;SDS011;795;49.296;11.348;2023-03-22T08:37:06;5.10;;;3.30;;
1603;SDS011;795;49.296;11.348;2023-03-22T08:39:35;4.93;;;3.67;;
1603;SDS011;795;49.296;11.348;2023-03-22T08:42:03;5.13;;;3.40;;
1603;SDS011;795;49.296;11.348;2023-03-22T08:44:30;5.17;;;3.60;;
1603;SDS011;795;49.296;11.348;2023-03-22T08:46:57;4.00;;;3.50;;
1603;SDS011;795;49.296;11.348;2023-03-22T08:49:26;4.77;;;3.80;;
1603;SDS011;795;49.296;11.348;2023-03-22T08:51:53;3.40;;;3.10;;
1603;SDS011;795;49.296;11.348;2023-03-22T08:54:22;4.07;;;3.67;;
1603;SDS011;795;49.296;11.348;2023-03-22T08:56:50;3.70;;;3.10;;
1603;SDS011;795;49.296;11.348;2023-03-22T08:59:17;3.97;;;2.90;;
1603;SDS011;795;49.296;11.348;2023-03-22T09:03:38;4.00;;;2.90;;
1603;SDS011;795;49.296;11.348;2023-03-22T09:06:06;4.67;;;2.60;;
1603;SDS011;795;49.296;11.348;2023-03-22T09:08:35;3.10;;;2.67;;
1603;SDS011;795;49.296;11.348;2023-03-22T09:11:03;3.20;;;3.00;;
1603;SDS011;795;49.296;11.348;2023-03-22T09:13:34;4.97;;;3.03;;
1603;SDS011;795;49.296;11.348;2023-03-22T09:16:02;2.97;;;2.77;;
1603;SDS011;795;49.296;11.348;2023-03-22T09:18:34;3.80;;;2.30;;
1603;SDS011;795;49.296;11.348;2023-03-22T09:21:03;2.50;;;2.30;;
1603;SDS011;795;49.296;11.348;2023-03-22T09:23:33;2.47;;;2.07;;
1603;SDS011;795;49.296;11.348;2023-03-22T09:26:03;2.60;;;2.40;;
1603;SDS011;795;49.296;11.348;2023-03-22T09:28:34;2.93;;;2.33;;
1603;SDS011;795;49.296;11.348;2023-03-22T09:31:02;2.40;;;1.90;;
1603;SDS011;795;49.296;11.348;2023-03-22T09:33:35;2.33;;;2.13;;
1603;SDS011;795;49.296;11.348;2023-03-22T09:36:06;2.47;;;2.27;;
1603;SDS011;795;49.296;11.348;2023-03-22T09:38:37;3.33;;;2.17;;
1603;SDS011;795;49.296;11.348;2023-03-22T09:41:07;3.10;;;2.23;;
1603;SDS011;795;49.296;11.348;2023-03-22T09:43:48;2.40;;;2.20;;
1603;SDS011;795;49.296;11.348;2023-03-22T09:46:45;3.70;;;2.27;;
1603;SDS011;795;49.296;11.348;2023-03-22T09:49:18;1.80;;;1.70;;
1603;SDS011;795;49.296;11.348;2023-03-22T09:51:54;2.80;;;2.27;;
1603;SDS011;795;49.296;11.348;2023-03-22T09:54:32;2.30;;;2.10;;
1603;SDS011;795;49.296;11.348;2023-03-22T09:57:14;1.97;;;1.87;;
1603;SDS011;795;49.296;11.348;2023-03-22T10:08:55;4.37;;;2.00;;
1603;SDS011;795;49.296;11.348;2023-03-22T10:15:14;2.60;;;2.40;;
1603;SDS011;795;49.296;11.348;2023-03-22T10:17:53;2.00;;;1.80;;
1603;SDS011;795;49.296;11.348;2023-03-22T10:23:34;2.37;;;1.93;;
1603;SDS011;795;49.296;11.348;2023-03-22T10:26:26;2.67;;;2.47;;
1603;SDS011;795;49.296;11.348;2023-03-22T10:29:03;2.07;;;1.97;;
1603;SDS011;795;49.296;11.348;2023-03-22T10:34:41;2.60;;;2.40;;
1603;SDS011;795;49.296;11.348;2023-03-22T10:37:17;2.50;;;2.30;;
1603;SDS011;795;49.296;11.348;2023-03-22T10:39:53;3.23;;;2.60;;
1603;SDS011;795;49.296;11.348;2023-03-22T10:42:26;3.03;;;2.73;;
1603;SDS011;795;49.296;11.348;2023-03-22T10:44:57;2.97;;;2.30;;
1603;SDS011;795;49.296;11.348;2023-03-22T10:47:35;3.13;;;2.93;;
1603;SDS011;795;49.296;11.348;2023-03-22T10:50:38;4.00;;;3.37;;
1603;SDS011;795;49.296;11.348;2023-03-22T10:53:12;3.40;;;3.10;;
1603;SDS011;795;49.296;11.348;2023-03-22T10:56:13;3.07;;;2.77;;
1603;SDS011;795;49.296;11.348;2023-03-22T10:58:45;3.20;;;2.50;;
1603;SDS011;795;49.296;11.348;2023-03-22T11:01:23;3.33;;;1.90;;
1603;SDS011;795;49.296;11.348;2023-03-22T11:06:49;1.60;;;1.50;;
1603;SDS011;795;49.296;11.348;2023-03-22T11:09:22;2.13;;;1.93;;
1603;SDS011;795;49.296;11.348;2023-03-22T11:11:50;3.03;;;2.20;;
1603;SDS011;795;49.296;11.348;2023-03-22T11:14:31;3.40;;;1.80;;
1603;SDS011;795;49.296;11.348;2023-03-22T11:17:07;1.90;;;1.80;;
1603;SDS011;795;49.296;11.348;2023-03-22T11:19:54;10.20;;;2.27;;
1603;SDS011;795;49.296;11.348;2023-03-22T11:22:36;2.77;;;2.00;;
1603;SDS011;795;49.296;11.348;2023-03-22T11:25:14;2.37;;;2.17;;
1603;SDS011;795;49.296;11.348;2023-03-22T11:27:53;3.33;;;1.80;;
1603;SDS011;795;49.296;11.348;2023-03-22T11:30:30;2.87;;;2.67;;
1603;SDS011;795;49.296;11.348;2023-03-22T11:33:12;2.10;;;2.00;;
1603;SDS011;795;49.296;11.348;2023-03-22T11:35:51;2.57;;;2.37;;
1603;SDS011;795;49.296;11.348;2023-03-22T11:41:06;2.80;;;2.20;;
1603;SDS011;795;49.296;11.348;2023-03-22T11:43:57;2.40;;;2.20;;
1603;SDS011;795;49.296;11.348;2023-03-22T11:46:31;2.40;;;2.10;;
1603;SDS011;795;49.296;11.348;2023-03-22T11:49:03;2.60;;;2.30;;
1603;SDS011;795;49.296;11.348;2023-03-22T11:51:42;3.10;;;2.30;;
1603;SDS011;795;49.296;11.348;2023-03-22T11:57:00;2.60;;;2.37;;
1603;SDS011;795;49.296;11.348;2023-03-22T11:59:36;2.80;;;2.17;;
1603;SDS011;795;49.296;11.348;2023-03-22T12:02:13;2.40;;;2.20;;
1603;SDS011;795;49.296;11.348;2023-03-22T12:05:35;2.30;;;2.10;;
1603;SDS011;795;49.296;11.348;2023-03-22T12:10:53;3.20;;;2.23;;
1603;SDS011;795;49.296;11.348;2023-03-22T12:16:20;2.43;;;2.00;;
1603;SDS011;795;49.296;11.348;2023-03-22T12:22:09;2.47;;;1.70;;
1603;SDS011;795;49.296;11.348;2023-03-22T12:24:43;1.80;;;1.27;;
1603;SDS011;795;49.296;11.348;2023-03-22T12:27:14;1.57;;;1.47;;
1603;SDS011;795;49.296;11.348;2023-03-22T12:29:51;1.67;;;1.40;;
1603;SDS011;795;49.296;11.348;2023-03-22T12:32:34;1.17;;;1.07;;
1603;SDS011;795;49.296;11.348;2023-03-22T12:35:10;1.20;;;1.10;;
1603;SDS011;795;49.296;11.348;2023-03-22T12:37:57;2.83;;;1.33;;
1603;SDS011;795;49.296;11.348;2023-03-22T12:40:37;1.43;;;1.33;;
1603;SDS011;795;49.296;11.348;2023-03-22T12:46:14;1.43;;;1.27;;
1603;SDS011;795;49.296;11.348;2023-03-22T12:49:19;1.77;;;1.63;;
1603;SDS011;795;49.296;11.348;2023-03-22T12:52:20;1.60;;;1.30;;
1603;SDS011;795;49.296;11.348;2023-03-22T12:55:19;1.43;;;1.33;;
1603;SDS011;795;49.296;11.348;2023-03-22T12:57:52;2.20;;;2.10;;
1603;SDS011;795;49.296;11.348;2023-03-22T13:00:21;1.70;;;1.27;;
1603;SDS011;795;49.296;11.348;2023-03-22T13:05:47;1.53;;;1.43;;
1603;SDS011;795;49.296;11.348;2023-03-22T13:08:25;1.43;;;1.30;;
1603;SDS011;795;49.296;11.348;2023-03-22T13:19:59;1.90;;;1.13;;
1603;SDS011;795;49.296;11.348;2023-03-22T13:30:14;1.03;;;1.03;;
1603;SDS011;795;49.296;11.348;2023-03-22T13:32:49;1.30;;;1.20;;
1603;SDS011;795;49.296;11.348;2023-03-22T13:35:45;2.50;;;1.40;;
1603;SDS011;795;49.296;11.348;2023-03-22T13:41:08;1.00;;;0.90;;
1603;SDS011;795;49.296;11.348;2023-03-22T13:43:54;1.67;;;1.23;;
1603;SDS011;795;49.296;11.348;2023-03-22T13:46:26;0.80;;;0.80;;
1603;SDS011;795;49.296;11.348;2023-03-22T13:49:26;0.97;;;0.97;;
1603;SDS011;795;49.296;11.348;2023-03-22T13:52:23;1.43;;;1.33;;
1603;SDS011;795;49.296;11.348;2023-03-22T13:55:00;1.20;;;1.10;;
1603;SDS011;795;49.296;11.348;2023-03-22T14:01:02;1.20;;;1.10;;
1603;SDS011;795;49.296;11.348;2023-03-22T14:03:41;1.47;;;1.10;;
1603;SDS011;795;49.296;11.348;2023-03-22T14:06:18;2.10;;;1.13;;
1603;SDS011;795;49.296;11.348;2023-03-22T14:08:56;1.40;;;1.30;;
1603;SDS011;795;49.296;11.348;2023-03-22T14:14:46;1.57;;;1.20;;
1603;SDS011;795;49.296;11.348;2023-03-22T14:17:41;1.00;;;1.00;;
1603;SDS011;795;49.296;11.348;2023-03-22T14:20:19;0.90;;;0.90;;
1603;SDS011;795;49.296;11.348;2023-03-22T14:22:57;1.27;;;1.00;;
1603;SDS011;795;49.296;11.348;2023-03-22T14:25:40;1.50;;;1.07;;
1603;SDS011;795;49.296;11.348;2023-03-22T14:28:20;0.90;;;0.90;;
1603;SDS011;795;49.296;11.348;2023-03-22T14:31:01;1.30;;;1.20;;
1603;SDS011;795;49.296;11.348;2023-03-22T14:33:30;2.70;;;1.20;;
1603;SDS011;795;49.296;11.348;2023-03-22T14:36:02;1.30;;;1.10;;
1603;SDS011;795;49.296;11.348;2023-03-22T14:38:38;1.77;;;1.10;;
1603;SDS011;795;49.296;11.348;2023-03-22T14:41:10;1.20;;;1.10;;
1603;SDS011;795;49.296;11.348;2023-03-22T14:43:49;1.40;;;1.30;;
1603;SDS011;795;49.296;11.348;2023-03-22T14:46:25;1.40;;;1.30;;
1603;SDS011;795;49.296;11.348;2023-03-22T14:49:00;1.33;;;1.23;;
1603;SDS011;795;49.296;11.348;2023-03-22T14:54:14;1.17;;;1.17;;
1603;SDS011;795;49.296;11.348;2023-03-22T14:56:46;1.00;;;1.00;;
1603;SDS011;795;49.296;11.348;2023-03-22T14:59:17;3.47;;;1.60;;
1603;SDS011;795;49.296;11.348;2023-03-22T15:01:55;1.40;;;1.10;;
1603;SDS011;795;49.296;11.348;2023-03-22T15:04:41;3.87;;;1.20;;
1603;SDS011;795;49.296;11.348;2023-03-22T15:07:08;1.33;;;1.23;;
1603;SDS011;795;49.296;11.348;2023-03-22T15:09:34;1.40;;;1.30;;
1603;SDS011;795;49.296;11.348;2023-03-22T15:12:02;1.20;;;1.20;;
1603;SDS011;795;49.296;11.348;2023-03-22T15:14:31;1.00;;;1.00;;
1603;SDS011;795;49.296;11.348;2023-03-22T15:17:01;1.57;;;1.47;;
1603;SDS011;795;49.296;11.348;2023-03-22T15:19:45;1.10;;;1.00;;
1603;SDS011;795;49.296;11.348;2023-03-22T15:22:16;1.17;;;1.13;;
1603;SDS011;795;49.296;11.348;2023-03-22T15:24:50;1.37;;;1.27;;
1603;SDS011;795;49.296;11.348;2023-03-22T15:27:24;2.10;;;1.30;;
1603;SDS011;795;49.296;11.348;2023-03-22T15:29:57;1.87;;;1.30;;
1603;SDS011;795;49.296;11.348;2023-03-22T15:32:24;1.53;;;1.40;;
1603;SDS011;795;49.296;11.348;2023-03-22T15:34:52;1.50;;;1.40;;
1603;SDS011;795;49.296;11.348;2023-03-22T15:37:38;2.80;;;1.50;;
1603;SDS011;795;49.296;11.348;2023-03-22T15:40:06;1.00;;;1.00;;
1603;SDS011;795;49.296;11.348;2023-03-22T15:48:44;2.40;;;1.10;;
1603;SDS011;795;49.296;11.348;2023-03-22T15:51:26;1.40;;;1.30;;
1603;SDS011;795;49.296;11.348;2023-03-22T15:54:05;1.43;;;1.20;;
1603;SDS011;795;49.296;11.348;2023-03-22T15:56:54;1.07;;;1.07;;
1603;SDS011;795;49.296;11.348;2023-03-22T15:59:32;3.73;;;1.40;;
1603;SDS011;795;49.296;11.348;2023-03-22T16:02:34;1.40;;;1.30;;
1603;SDS011;795;49.296;11.348;2023-03-22T16:05:05;1.13;;;1.13;;
1603;SDS011;795;49.296;11.348;2023-03-22T16:07:36;1.00;;;1.00;;
1603;SDS011;795;49.296;11.348;2023-03-22T16:10:02;1.47;;;1.37;;
1603;SDS011;795;49.296;11.348;2023-03-22T16:12:29;1.87;;;1.20;;
1603;SDS011;795;49.296;11.348;2023-03-22T16:14:54;1.53;;;1.30;;
1603;SDS011;795;49.296;11.348;2023-03-22T16:17:23;1.53;;;1.37;;
1603;SDS011;795;49.296;11.348;2023-03-22T16:19:50;4.20;;;1.30;;
1603;SDS011;795;49.296;11.348;2023-03-22T16:22:18;1.97;;;1.30;;
1603;SDS011;795;49.296;11.348;2023-03-22T16:24:45;3.57;;;1.20;;
1603;SDS011;795;49.296;11.348;2023-03-22T16:27:16;1.80;;;1.20;;
1603;SDS011;795;49.296;11.348;2023-03-22T16:29:45;1.63;;;1.53;;
1603;SDS011;795;49.296;11.348;2023-03-22T16:32:13;1.60;;;1.50;;
1603;SDS011;795;49.296;11.348;2023-03-22T16:34:48;9.30;;;7.60;;
1603;SDS011;795;49.296;11.348;2023-03-22T16:37:18;19.50;;;12.00;;
1603;SDS011;795;49.296;11.348;2023-03-22T16:39:50;5.70;;;3.67;;
1603;SDS011;795;49.296;11.348;2023-03-22T16:42:19;13.40;;;8.53;;
1603;SDS011;795;49.296;11.348;2023-03-22T16:44:49;5.20;;;4.47;;
1603;SDS011;795;49.296;11.348;2023-03-22T16:47:18;1.90;;;1.80;;
1603;SDS011;795;49.296;11.348;2023-03-22T16:49:50;1.07;;;0.97;;
1603;SDS011;795;49.296;11.348;2023-03-22T16:52:22;3.53;;;1.53;;
1603;SDS011;795;49.296;11.348;2023-03-22T16:54:51;1.47;;;1.30;;
1603;SDS011;795;49.296;11.348;2023-03-22T16:57:19;2.50;;;1.63;;
1603;SDS011;795;49.296;11.348;2023-03-22T16:59:51;1.57;;;1.33;;
1603;SDS011;795;49.296;11.348;2023-03-22T17:02:20;1.33;;;1.27;;
1603;SDS011;795;49.296;11.348;2023-03-22T17:04:54;2.30;;;1.43;;
1603;SDS011;795;49.296;11.348;2023-03-22T17:07:21;1.90;;;1.10;;
1603;SDS011;795;49.296;11.348;2023-03-22T17:09:53;1.70;;;1.60;;
1603;SDS011;795;49.296;11.348;2023-03-22T17:12:21;1.63;;;1.53;;
1603;SDS011;795;49.296;11.348;2023-03-22T17:14:53;1.80;;;1.47;;
1603;SDS011;795;49.296;11.348;2023-03-22T17:17:22;1.53;;;1.20;;
1603;SDS011;795;49.296;11.348;2023-03-22T17:19:51;2.00;;;1.40;;
1603;SDS011;795;49.296;11.348;2023-03-22T17:22:19;1.40;;;1.30;;
1603;SDS011;795;49.296;11.348;2023-03-22T17:24:46;2.23;;;2.10;;
1603;SDS011;795;49.296;11.348;2023-03-22T17:27:12;1.93;;;1.77;;